Siletz, Oregon
Current Conditions -  °F | °C
As of 3:15 AM on Saturday 01 Nov 2014 (Local Time) from KONP Reporting Station
Moderate Fog Moderate Fog  
Wind Chill: 41°   Ceiling: 100
Heat Index: 45°   Visibility: 0.5mi
Dew Point: 45°   Wind: 6mph
Humidity: 100%   Direction: 80°E
Pressure: 29.85"   Gusts: NA
Location:  44.72°N, 123.92°W
Report Text: KONP 011015Z AUTO 08005KT 1/2SM FG OVC001 07/07 A2985 RMK AO2
Loading
Personal Weather Stations






























Interactive Weather Map
Tropical Storm Tracking
New forecast layout! Learn more

10-Day Weather Forecast

Advertisements
Track Severe Weather on mobile